Itacare, Brazil
Current Conditions -  °F | °C
As of 5:00 PM on Monday 24 Nov 2014 (Local Time) from SBIL Reporting Station
Few Clouds Few Clouds  
Wind Chill: 81°   Ceiling: Unl
Heat Index: 85°   Visibility: 6mi
Dew Point: 72°   Wind: 9mph
Humidity: 74%   Direction: 50°NE
Pressure: 29.91"   Gusts: NA
Location:  14.28°S, 39°W
Report Text: SBIL 242000Z 05008KT 9999 FEW025 27/22 Q1013
Loading
Personal Weather Stations






























Interactive Weather Map New forecast layout! Learn more

10-Day Weather Forecast

Advertisements
Track Severe Weather on mobile